createdAt,value
2023-02-14T00:00:01.538Z,68.45
2023-02-14T00:05:04.314Z,69.40
2023-02-14T00:10:08.735Z,68.92
2023-02-14T00:15:26.162Z,69.35
2023-02-14T00:20:29.389Z,68.90
2023-02-14T00:25:34.014Z,68.36
2023-02-14T00:30:38.131Z,69.29
2023-02-14T00:35:40.887Z,68.89
2023-02-14T00:40:43.663Z,68.77
2023-02-14T00:45:47.799Z,68.63
2023-02-14T00:50:50.570Z,69.40
2023-02-14T00:55:53.300Z,68.81
2023-02-14T01:00:57.863Z,67.22
2023-02-14T01:06:00.888Z,68.08
2023-02-14T01:11:10.292Z,68.22
2023-02-14T01:16:16.125Z,68.55
2023-02-14T01:21:20.884Z,68.34
2023-02-14T01:26:26.089Z,68.32
2023-02-14T01:31:32.317Z,67.64
2023-02-14T01:36:38.088Z,66.82
2023-02-14T01:41:42.388Z,67.31
2023-02-14T01:46:47.534Z,67.57
2023-02-14T01:51:52.203Z,68.88
2023-02-14T01:56:58.866Z,66.42
2023-02-14T02:02:03.490Z,67.82
2023-02-14T02:07:08.203Z,67.12
2023-02-14T02:12:11.233Z,67.69
2023-02-14T02:17:41.161Z,68.01
2023-02-14T02:23:12.935Z,69.06
2023-02-14T02:28:39.757Z,69.23
2023-02-14T02:34:28.131Z,67.83
2023-02-14T02:39:42.518Z,68.29
2023-02-14T02:44:51.817Z,68.57
2023-02-14T02:50:15.939Z,68.53
2023-02-14T02:55:24.104Z,68.32
2023-02-14T03:00:27.672Z,68.44
2023-02-14T03:05:39.802Z,68.52
2023-02-14T03:10:45.827Z,69.07
2023-02-14T03:15:55.455Z,69.36
2023-02-14T03:21:03.684Z,69.36
2023-02-14T03:26:35.025Z,69.37
2023-02-14T03:31:43.711Z,69.41
2023-02-14T03:36:52.025Z,68.61
2023-02-14T03:42:06.096Z,68.28
2023-02-14T03:47:11.079Z,69.16
2023-02-14T03:52:15.502Z,67.04
2023-02-14T03:57:22.102Z,70.31
2023-02-14T04:02:28.567Z,69.33
2023-02-14T04:07:31.324Z,69.82
2023-02-14T04:12:37.974Z,68.85
2023-02-14T04:18:16.395Z,69.71
2023-02-14T04:23:19.074Z,69.85
2023-02-14T04:28:27.308Z,69.31
2023-02-14T04:33:34.913Z,70.22
2023-02-14T04:38:37.704Z,70.46
2023-02-14T04:43:41.743Z,70.46
2023-02-14T04:48:44.477Z,70.38
2023-02-14T04:53:47.430Z,70.28
2023-02-14T04:58:51.521Z,68.46
2023-02-14T05:03:54.304Z,70.14
2023-02-14T05:08:57.054Z,69.40
2023-02-14T05:14:01.090Z,69.41
2023-02-14T05:19:03.900Z,67.97
2023-02-14T05:24:06.827Z,69.11
2023-02-14T05:29:10.885Z,68.94
2023-02-14T05:34:13.817Z,69.39
2023-02-14T05:39:16.510Z,69.08
2023-02-14T05:44:20.659Z,68.71
2023-02-14T05:49:23.369Z,69.32
2023-02-14T05:54:26.060Z,66.89
2023-02-14T05:59:30.124Z,68.08
2023-02-14T06:04:32.953Z,67.71
2023-02-14T06:09:35.714Z,66.42
2023-02-14T06:14:41.333Z,66.57
2023-02-14T06:19:44.085Z,67.06
2023-02-14T06:24:46.838Z,66.73
2023-02-14T06:29:50.917Z,67.91
2023-02-14T06:34:53.726Z,66.51
2023-02-14T06:39:56.544Z,67.37
2023-02-14T06:45:00.638Z,67.62
2023-02-14T06:50:05.105Z,68.54
2023-02-14T06:55:08.647Z,69.27
2023-02-14T07:00:14.744Z,68.18
2023-02-14T07:05:18.920Z,68.67
2023-02-14T07:10:21.759Z,67.83
2023-02-14T07:15:25.799Z,68.78
2023-02-14T07:20:28.713Z,69.42
2023-02-14T07:25:31.458Z,68.51
2023-02-14T07:30:35.560Z,66.92
2023-02-14T07:35:38.318Z,67.52
2023-02-14T07:40:41.049Z,68.03
2023-02-14T07:45:45.096Z,67.40
2023-02-14T07:50:47.902Z,67.72
2023-02-14T07:55:50.891Z,66.32
2023-02-14T08:00:55.914Z,65.59
2023-02-14T08:05:58.682Z,64.40
2023-02-14T08:11:01.700Z,63.13
2023-02-14T08:16:06.809Z,63.44
2023-02-14T08:21:11.189Z,62.87
2023-02-14T08:26:13.986Z,62.55
2023-02-14T08:31:34.416Z,60.09
2023-02-14T08:36:38.143Z,59.97
2023-02-14T08:41:40.872Z,59.41
2023-02-14T08:46:44.989Z,58.73
2023-02-14T08:51:47.698Z,61.32
2023-02-14T08:56:50.414Z,59.04
2023-02-14T09:01:54.480Z,61.48
2023-02-14T09:06:57.158Z,59.74
2023-02-14T09:11:59.865Z,53.84
2023-02-14T09:17:05.728Z,53.08
2023-02-14T09:22:10.268Z,50.24
2023-02-14T09:27:13.153Z,49.18
2023-02-14T09:32:17.528Z,47.40
2023-02-14T09:37:20.335Z,45.58
2023-02-14T09:42:34.452Z,45.38
2023-02-14T09:47:44.317Z,44.49
2023-02-14T09:52:48.580Z,44.30
2023-02-14T09:58:06.458Z,44.10
2023-02-14T10:03:32.880Z,44.37
2023-02-14T10:08:46.602Z,44.96
2023-02-14T10:13:52.987Z,45.41
2023-02-14T10:19:18.104Z,45.57
2023-02-14T10:24:26.556Z,45.91
2023-02-14T10:29:29.414Z,46.07
2023-02-14T10:34:37.390Z,46.04
2023-02-14T10:39:56.005Z,46.15
2023-02-14T10:45:07.450Z,46.66
2023-02-14T10:50:19.300Z,46.88
2023-02-14T10:55:32.284Z,47.12
2023-02-14T11:00:38.789Z,45.92
2023-02-14T11:05:46.579Z,45.26
2023-02-14T11:10:49.759Z,45.80
2023-02-14T11:15:54.078Z,46.08
2023-02-14T11:21:07.293Z,45.89
2023-02-14T11:26:17.700Z,46.40
2023-02-14T11:31:29.045Z,46.38
2023-02-14T11:36:33.865Z,46.91
2023-02-14T11:41:50.421Z,47.20
2023-02-14T11:46:54.509Z,47.57
2023-02-14T11:52:00.275Z,47.81
2023-02-14T11:57:07.393Z,47.98
2023-02-14T12:02:27.945Z,48.65
2023-02-14T12:07:34.177Z,48.19
2023-02-14T12:12:36.937Z,48.44
2023-02-14T12:17:40.369Z,47.94
2023-02-14T12:22:47.992Z,48.10
2023-02-14T12:27:53.582Z,47.74
2023-02-14T12:32:57.246Z,47.72
2023-02-14T12:38:07.789Z,47.74
2023-02-14T12:43:23.986Z,48.09
2023-02-14T12:48:35.948Z,48.10
2023-02-14T12:53:49.222Z,48.66
2023-02-14T12:58:58.491Z,48.62
2023-02-14T13:04:39.476Z,49.41
2023-02-14T13:09:49.759Z,50.00
2023-02-14T13:15:23.877Z,52.10
2023-02-14T13:20:40.243Z,53.18
2023-02-14T13:25:49.936Z,53.20
2023-02-14T13:30:52.940Z,53.15
2023-02-14T13:35:58.091Z,52.99
2023-02-14T13:41:02.928Z,53.25
2023-02-14T13:46:06.668Z,52.94
2023-02-14T13:51:10.329Z,52.63
2023-02-14T13:56:35.018Z,52.85
2023-02-14T14:01:40.476Z,53.21
2023-02-14T14:07:26.901Z,53.42
2023-02-14T14:12:41.631Z,53.10
2023-02-14T14:17:46.927Z,53.20
2023-02-14T14:22:50.910Z,54.01
2023-02-14T14:27:55.121Z,56.02
2023-02-14T14:32:57.886Z,58.04
2023-02-14T14:38:02.423Z,57.97
2023-02-14T14:43:13.322Z,57.78
2023-02-14T14:48:20.106Z,58.22
2023-02-14T14:53:24.998Z,58.30
2023-02-14T14:58:36.299Z,58.32
2023-02-14T15:03:39.059Z,57.99
2023-02-14T15:08:41.840Z,58.43
2023-02-14T15:13:58.270Z,58.51
2023-02-14T15:19:02.269Z,58.30
2023-02-14T15:24:05.228Z,58.09
2023-02-14T15:29:09.392Z,58.42
2023-02-14T15:34:13.465Z,58.30
2023-02-14T15:39:17.732Z,58.11
2023-02-14T15:44:23.820Z,58.08
2023-02-14T15:49:33.012Z,57.72
2023-02-14T15:54:38.850Z,57.90
2023-02-14T16:11:39.903Z,58.55
2023-02-14T16:17:00.060Z,59.02
2023-02-14T16:22:04.332Z,58.56
2023-02-14T16:27:13.263Z,62.93
2023-02-14T16:32:20.241Z,64.23
2023-02-14T16:37:25.718Z,62.42
2023-02-14T16:42:28.604Z,61.74
2023-02-14T16:47:31.321Z,61.67
2023-02-14T16:52:35.717Z,61.77
2023-02-14T16:57:41.023Z,61.75
2023-02-14T17:02:44.383Z,61.83
2023-02-14T17:07:48.571Z,61.98
2023-02-14T17:12:51.991Z,62.41
2023-02-14T17:17:58.858Z,62.58
2023-02-14T17:23:03.500Z,62.12
2023-02-14T17:28:06.493Z,62.42
2023-02-14T17:33:09.421Z,62.30
2023-02-14T17:38:13.685Z,62.53
2023-02-14T17:43:16.377Z,61.46
2023-02-14T17:48:19.114Z,60.54
2023-02-14T17:53:23.150Z,58.76
2023-02-14T17:58:25.840Z,56.90
2023-02-14T18:03:28.524Z,55.41
2023-02-14T18:08:34.293Z,54.92
2023-02-14T18:13:37.286Z,52.60
2023-02-14T18:18:40.415Z,50.61
2023-02-14T18:23:44.549Z,50.01
2023-02-14T18:28:47.543Z,48.80
2023-02-14T18:33:51.022Z,47.09
2023-02-14T18:38:56.230Z,46.91
2023-02-14T18:43:59.059Z,45.42
2023-02-14T18:49:02.539Z,46.06
2023-02-14T18:54:07.117Z,46.08
2023-02-14T18:59:11.358Z,46.49
2023-02-14T19:04:14.572Z,47.74
2023-02-14T19:09:18.703Z,47.67
2023-02-14T19:14:21.345Z,47.50
2023-02-14T19:19:24.050Z,49.12
2023-02-14T19:24:28.548Z,47.33
2023-02-14T19:29:31.291Z,46.05
2023-02-14T19:34:34.690Z,46.79
2023-02-14T19:39:38.875Z,45.98
2023-02-14T19:44:41.825Z,45.54
2023-02-14T19:49:44.628Z,45.16
2023-02-14T19:54:48.686Z,46.22
2023-02-14T19:59:51.552Z,45.87
2023-02-14T20:05:07.513Z,46.38
2023-02-14T20:10:24.222Z,47.29
2023-02-14T20:15:29.031Z,46.74
2023-02-14T20:20:52.657Z,47.00
2023-02-14T20:25:57.062Z,47.23
2023-02-14T20:31:00.105Z,45.79
2023-02-14T20:36:10.979Z,44.99
2023-02-14T20:41:16.386Z,46.15
2023-02-14T20:46:19.303Z,46.10
2023-02-14T20:51:24.615Z,46.44
2023-02-14T20:56:40.074Z,45.01
2023-02-14T21:01:42.866Z,46.05
2023-02-14T21:06:45.564Z,46.46
2023-02-14T21:11:50.250Z,47.22
2023-02-14T21:16:52.970Z,47.98
2023-02-14T21:21:55.734Z,48.94
2023-02-14T21:27:01.694Z,48.92
2023-02-14T21:32:04.581Z,50.56
2023-02-14T21:37:07.409Z,51.32
2023-02-14T21:42:12.216Z,50.43
2023-02-14T21:47:14.987Z,50.30
2023-02-14T21:52:17.716Z,52.02
2023-02-14T21:57:21.801Z,51.07
2023-02-14T22:02:24.622Z,52.46
2023-02-14T22:07:28.439Z,52.27
2023-02-14T22:12:32.534Z,53.40
2023-02-14T22:17:35.637Z,54.37
2023-02-14T22:22:38.550Z,52.58
2023-02-14T22:27:42.697Z,54.31
2023-02-14T22:32:45.390Z,53.17
2023-02-14T22:37:48.087Z,54.28
2023-02-14T22:42:52.145Z,54.54
2023-02-14T22:47:54.838Z,54.09
2023-02-14T22:52:57.727Z,53.73
2023-02-14T22:58:02.129Z,55.13
2023-02-14T23:03:08.772Z,56.03
2023-02-14T23:08:11.510Z,56.61
2023-02-14T23:13:57.456Z,57.02
2023-02-14T23:19:17.857Z,56.54
2023-02-14T23:24:20.646Z,56.70
2023-02-14T23:29:24.792Z,57.55
2023-02-14T23:34:28.779Z,59.18
2023-02-14T23:39:32.566Z,58.15
2023-02-14T23:44:36.872Z,57.33
2023-02-14T23:49:47.438Z,57.55
2023-02-14T23:54:50.276Z,59.81
2023-02-14T23:59:54.373Z,59.30
